createdAt,value
2022-08-19T00:04:00.292Z,15.73
2022-08-19T00:10:02.089Z,15.77
2022-08-19T00:16:04.806Z,13.73
2022-08-19T00:22:06.816Z,12.80
2022-08-19T00:28:08.605Z,12.32
2022-08-19T00:34:12.807Z,13.18
2022-08-19T00:40:15.319Z,12.88
2022-08-19T00:46:17.226Z,11.15
2022-08-19T00:52:32.999Z,11.05
2022-08-19T00:58:36.348Z,12.00
2022-08-19T01:04:38.116Z,11.90
2022-08-19T01:10:55.811Z,12.05
2022-08-19T01:16:58.302Z,10.02
2022-08-19T01:23:00.210Z,9.65
2022-08-19T01:29:02.140Z,9.85
2022-08-19T01:35:07.619Z,9.88
2022-08-19T01:41:10.879Z,10.55
2022-08-19T01:47:13.201Z,10.00
2022-08-19T01:53:15.184Z,9.73
2022-08-19T01:59:21.522Z,9.77
2022-08-19T02:05:24.070Z,10.98
2022-08-19T02:11:32.502Z,10.18
2022-08-19T02:17:34.694Z,13.32
2022-08-19T02:23:36.616Z,12.35
2022-08-19T02:29:38.543Z,13.50
2022-08-19T02:35:44.278Z,13.68
2022-08-19T02:41:46.392Z,14.13
2022-08-19T02:47:48.400Z,13.73
2022-08-19T02:53:51.122Z,15.20
2022-08-19T02:59:53.573Z,13.52
2022-08-19T03:06:11.120Z,13.27
2022-08-19T03:12:13.059Z,14.35
2022-08-19T03:18:15.453Z,13.15
2022-08-19T03:24:18.372Z,12.20
2022-08-19T03:30:23.317Z,13.25
2022-08-19T03:36:29.615Z,13.07
2022-08-19T03:42:38.500Z,14.02
2022-08-19T03:48:54.854Z,14.15
2022-08-19T03:54:56.678Z,14.15
2022-08-19T04:00:59.123Z,14.25
2022-08-19T04:07:01.173Z,14.23
2022-08-19T04:13:05.021Z,12.88
2022-08-19T04:19:07.627Z,14.43
2022-08-19T04:25:09.965Z,14.77
2022-08-19T04:31:17.636Z,14.82
2022-08-19T04:43:21.136Z,13.55
2022-08-19T04:49:24.379Z,12.70
2022-08-19T04:55:28.868Z,12.65
2022-08-19T05:01:33.849Z,12.68
2022-08-19T05:07:36.215Z,12.40
2022-08-19T05:13:38.129Z,12.88
2022-08-19T05:20:02.262Z,11.15
2022-08-19T05:26:04.907Z,10.68
2022-08-19T05:32:11.449Z,11.10
2022-08-19T05:38:13.650Z,11.13
2022-08-19T05:44:17.128Z,10.57
2022-08-19T05:50:19.052Z,8.82
2022-08-19T05:56:21.539Z,9.52
2022-08-19T06:02:23.475Z,7.95
2022-08-19T06:08:33.844Z,7.63
2022-08-19T06:14:40.411Z,7.55
2022-08-19T06:20:55.609Z,7.33
2022-08-19T06:27:01.585Z,8.13
2022-08-19T06:33:03.772Z,7.68
2022-08-19T06:39:11.090Z,7.90
2022-08-19T06:45:12.907Z,6.82
2022-08-19T06:51:21.159Z,7.00
2022-08-19T06:57:24.599Z,6.65
2022-08-19T07:03:26.417Z,5.85
2022-08-19T07:09:29.072Z,6.00
2022-08-19T07:15:32.366Z,6.05
2022-08-19T07:21:34.148Z,6.45
2022-08-19T07:27:40.031Z,5.93
2022-08-19T07:33:44.251Z,5.60
2022-08-19T07:39:46.165Z,5.57
2022-08-19T07:45:48.215Z,5.00
2022-08-19T07:51:55.213Z,6.03
2022-08-19T07:57:57.153Z,6.30
2022-08-19T08:04:18.298Z,6.13
2022-08-19T08:10:21.468Z,6.20
2022-08-19T08:16:30.960Z,5.65
2022-08-19T08:22:52.270Z,7.03
2022-08-19T08:28:55.680Z,6.35
2022-08-19T08:34:57.507Z,6.03
2022-08-19T08:41:07.407Z,5.57
2022-08-19T08:47:14.836Z,5.18
2022-08-19T08:53:29.157Z,4.68
2022-08-19T08:59:37.774Z,5.18
2022-08-19T09:05:56.276Z,4.05
2022-08-19T09:12:36.264Z,3.75
2022-08-19T09:18:42.220Z,3.42
2022-08-19T09:24:43.987Z,3.38
2022-08-19T09:30:45.793Z,3.58
2022-08-19T09:36:47.660Z,3.33
2022-08-19T09:42:51.023Z,3.50
2022-08-19T09:48:54.985Z,3.70
2022-08-19T09:54:57.900Z,3.40
2022-08-19T10:01:01.264Z,3.80
2022-08-19T10:07:03.175Z,3.80
2022-08-19T10:13:07.406Z,2.70
2022-08-19T10:19:10.384Z,3.15
2022-08-19T10:25:13.643Z,3.53
2022-08-19T10:31:59.774Z,3.10
2022-08-19T10:37:53.244Z,3.85
2022-08-19T10:44:04.386Z,3.17
2022-08-19T10:50:28.508Z,2.88
2022-08-19T10:56:50.526Z,2.75
2022-08-19T11:02:52.958Z,2.38
2022-08-19T11:08:55.882Z,2.08
2022-08-19T11:14:57.703Z,2.08
2022-08-19T11:21:20.053Z,1.75
2022-08-19T11:27:21.869Z,1.70
2022-08-19T11:33:23.775Z,1.80
2022-08-19T11:39:28.200Z,1.80
2022-08-19T11:45:31.170Z,1.77
2022-08-19T11:51:33.300Z,1.70
2022-08-19T11:57:35.168Z,1.70
2022-08-19T12:03:37.100Z,1.65
2022-08-19T12:09:42.664Z,1.50
2022-08-19T12:15:47.975Z,1.25
2022-08-19T12:21:50.623Z,1.33
2022-08-19T12:27:57.346Z,1.40
2022-08-19T12:33:59.735Z,1.40
2022-08-19T12:40:02.067Z,1.50
2022-08-19T12:46:05.242Z,1.42
2022-08-19T12:52:09.114Z,1.38
2022-08-19T12:58:13.421Z,1.85
2022-08-19T13:04:16.263Z,1.10
2022-08-19T13:10:20.973Z,1.30
2022-08-19T13:16:23.105Z,1.23
2022-08-19T13:22:25.928Z,1.10
2022-08-19T13:28:47.749Z,1.20
2022-08-19T13:34:49.565Z,1.20
2022-08-19T13:40:53.468Z,1.00
2022-08-19T13:46:55.355Z,1.10
2022-08-19T13:52:57.345Z,1.50
2022-08-19T13:58:59.584Z,1.50
2022-08-19T14:05:01.519Z,1.10
2022-08-19T14:11:06.616Z,1.05
2022-08-19T14:17:10.248Z,0.90
2022-08-19T14:23:14.881Z,1.10
2022-08-19T14:29:17.049Z,0.82
2022-08-19T14:35:19.069Z,0.98
2022-08-19T14:41:23.985Z,1.15
2022-08-19T14:47:25.906Z,1.20
2022-08-19T14:53:30.327Z,1.08
2022-08-19T14:59:32.525Z,1.33
2022-08-19T15:05:36.187Z,1.20
2022-08-19T15:11:39.381Z,1.13
2022-08-19T15:17:54.470Z,1.02
2022-08-19T15:23:57.815Z,1.17
2022-08-19T15:30:01.592Z,1.27
2022-08-19T15:36:06.508Z,1.20
2022-08-19T15:42:09.942Z,1.40
2022-08-19T15:48:11.829Z,1.50
2022-08-19T15:54:17.268Z,1.50
2022-08-19T16:00:37.482Z,1.20
2022-08-19T16:06:40.919Z,1.50
2022-08-19T16:12:42.718Z,1.40
2022-08-19T16:18:44.591Z,1.20
2022-08-19T16:24:47.783Z,1.15
2022-08-19T16:30:51.016Z,1.27
2022-08-19T16:36:53.016Z,1.20
2022-08-19T16:42:54.920Z,1.10
2022-08-19T16:48:56.707Z,1.40
2022-08-19T16:54:58.548Z,1.15
2022-08-19T17:01:04.288Z,1.30
2022-08-19T17:07:06.470Z,1.30
2022-08-19T17:13:08.309Z,1.20
2022-08-19T17:19:10.352Z,1.23
2022-08-19T17:25:12.197Z,1.10
2022-08-19T17:31:13.984Z,1.10
2022-08-19T17:37:16.160Z,1.20
2022-08-19T17:43:19.505Z,1.25
2022-08-19T17:49:37.418Z,0.90
2022-08-19T17:55:39.292Z,1.20
2022-08-19T18:01:53.156Z,0.98
2022-08-19T18:07:57.600Z,1.10
2022-08-19T18:13:59.441Z,1.15
2022-08-19T18:20:01.268Z,1.20
2022-08-19T18:26:04.356Z,1.33
2022-08-19T18:32:12.734Z,1.25
2022-08-19T18:38:35.495Z,1.10
2022-08-19T18:44:59.844Z,1.02
2022-08-19T18:51:02.444Z,1.50
2022-08-19T18:57:05.586Z,2.97
2022-08-19T19:03:08.453Z,3.05
2022-08-19T19:09:17.551Z,2.05
2022-08-19T19:15:19.336Z,1.33
2022-08-19T19:21:25.624Z,1.20
2022-08-19T19:27:27.463Z,1.80
2022-08-19T19:33:29.309Z,1.38
2022-08-19T19:39:45.747Z,1.17
2022-08-19T19:45:49.065Z,1.38
2022-08-19T19:51:51.592Z,1.58
2022-08-19T19:57:54.330Z,1.38
2022-08-19T20:03:56.467Z,1.42
2022-08-19T20:10:00.068Z,1.60
2022-08-19T20:16:05.916Z,1.70
2022-08-19T20:22:07.724Z,1.50
2022-08-19T20:28:09.747Z,1.40
2022-08-19T20:34:11.562Z,1.20
2022-08-19T20:40:14.903Z,1.42
2022-08-19T20:46:17.308Z,1.40
2022-08-19T20:52:19.419Z,1.60
2022-08-19T20:58:23.523Z,1.38
2022-08-19T21:04:25.490Z,1.50
2022-08-19T21:10:27.534Z,1.40
2022-08-19T21:16:32.557Z,1.20
2022-08-19T21:22:34.390Z,1.35
2022-08-19T21:28:36.749Z,1.38
2022-08-19T21:34:38.675Z,1.55
2022-08-19T21:40:40.544Z,1.90
2022-08-19T21:46:42.334Z,1.92
2022-08-19T21:52:44.172Z,1.60
2022-08-19T21:58:45.963Z,1.60
2022-08-19T22:04:48.359Z,1.73
2022-08-19T22:10:50.679Z,1.48
2022-08-19T22:16:54.269Z,1.42
2022-08-19T22:23:03.573Z,1.42
2022-08-19T22:29:05.512Z,1.63
2022-08-19T22:35:08.477Z,2.20
2022-08-19T22:41:11.548Z,1.80
2022-08-19T22:47:13.431Z,2.10
2022-08-19T22:53:16.699Z,1.83
2022-08-19T22:59:18.609Z,2.20
2022-08-19T23:05:22.430Z,1.80
2022-08-19T23:11:24.253Z,1.45
2022-08-19T23:17:26.049Z,1.67
2022-08-19T23:23:28.462Z,1.90
2022-08-19T23:29:49.844Z,1.73
2022-08-19T23:35:54.327Z,2.00
2022-08-19T23:41:56.439Z,2.08
2022-08-19T23:47:58.395Z,2.13
2022-08-19T23:54:00.201Z,1.88
